createdAt,value
2023-04-08T00:06:58.437Z,91.00
2023-04-08T00:13:05.878Z,87.76
2023-04-08T00:19:19.211Z,86.54
2023-04-08T00:21:45.800Z,86.21
2023-04-08T00:24:49.909Z,88.83
2023-04-08T00:28:12.743Z,88.77
2023-04-08T00:30:39.370Z,89.20
2023-04-08T00:34:02.600Z,87.71
2023-04-08T00:36:29.712Z,88.36
2023-04-08T00:39:52.658Z,90.75
2023-04-08T00:42:19.240Z,88.08
2023-04-08T00:45:41.888Z,85.54
2023-04-08T00:51:49.173Z,86.91
2023-04-08T00:54:17.446Z,86.20
2023-04-08T00:56:45.067Z,85.91
2023-04-08T01:03:43.301Z,88.71
2023-04-08T01:13:15.615Z,91.02
2023-04-08T01:15:44.419Z,93.56
2023-04-08T01:18:13.687Z,94.60
2023-04-08T01:20:44.657Z,95.04
2023-04-08T01:24:08.737Z,88.77
2023-04-08T01:30:19.679Z,92.85
2023-04-08T01:32:47.400Z,93.94
2023-04-08T01:36:10.105Z,95.81
2023-04-08T01:38:38.538Z,98.58
2023-04-08T01:42:01.514Z,96.60
2023-04-08T01:44:29.555Z,95.98
2023-04-08T01:47:52.517Z,93.13
2023-04-08T01:53:28.719Z,100.00
2023-04-08T01:59:40.291Z,97.51
2023-04-08T02:09:52.960Z,97.20
2023-04-08T02:13:15.927Z,98.40
2023-04-08T02:19:16.277Z,100.00
2023-04-08T02:25:25.819Z,100.00
2023-04-08T02:31:34.704Z,99.01
2023-04-08T02:38:38.242Z,100.00
2023-04-08T02:44:52.840Z,97.13
2023-04-08T02:47:19.428Z,99.34
2023-04-08T02:50:05.033Z,98.74
2023-04-08T02:56:19.146Z,99.31
2023-04-08T02:58:46.132Z,98.01
2023-04-08T03:05:18.942Z,98.49
2023-04-08T03:11:26.652Z,93.46
2023-04-08T03:13:53.274Z,98.60
2023-04-08T03:20:07.598Z,100.00
2023-04-08T03:25:42.633Z,100.00
2023-04-08T03:31:56.470Z,91.70
2023-04-08T03:35:19.415Z,91.81
2023-04-08T03:37:47.021Z,95.37
2023-04-08T03:41:10.066Z,97.13
2023-04-08T03:47:17.227Z,98.40
2023-04-08T03:49:43.919Z,94.34
2023-04-08T03:55:51.402Z,100.00
2023-04-08T03:58:17.944Z,100.00
2023-04-08T04:01:42.036Z,100.00
2023-04-08T04:06:59.827Z,100.00
2023-04-08T04:16:04.991Z,100.00
2023-04-08T04:23:15.463Z,100.00
2023-04-08T04:25:42.610Z,97.39
2023-04-08T04:28:10.070Z,100.00
2023-04-08T04:30:56.769Z,100.00
2023-04-08T04:37:10.191Z,100.00
2023-04-08T04:39:40.818Z,100.00
2023-04-08T04:45:48.415Z,97.03
2023-04-08T04:48:14.979Z,96.23
2023-04-08T04:50:41.613Z,100.00
2023-04-08T04:57:51.344Z,100.00
2023-04-08T05:00:17.914Z,99.46
2023-04-08T05:06:31.038Z,97.21
2023-04-08T05:13:34.546Z,100.00
2023-04-08T05:20:43.513Z,98.76
2023-04-08T05:23:10.086Z,97.23
2023-04-08T05:26:33.004Z,94.49
2023-04-08T05:33:00.192Z,96.37
2023-04-08T05:38:18.006Z,99.33
2023-04-08T05:40:44.556Z,99.45
2023-04-08T05:43:11.104Z,93.44
2023-04-08T05:45:37.624Z,94.14
2023-04-08T05:49:00.238Z,96.28
2023-04-08T05:51:26.833Z,99.25
2023-04-08T05:53:53.371Z,98.92
2023-04-08T06:00:57.259Z,95.57
2023-04-08T06:03:23.933Z,98.08
2023-04-08T06:05:50.763Z,96.57
2023-04-08T06:16:12.700Z,100.00
2023-04-08T06:22:26.798Z,100.00
2023-04-08T06:24:53.381Z,100.00
2023-04-08T06:27:20.363Z,100.00
2023-04-08T06:32:38.016Z,100.00
2023-04-08T06:36:01.178Z,100.00
2023-04-08T06:39:25.577Z,100.00
2023-04-08T06:41:52.455Z,100.00
2023-04-08T06:50:50.865Z,96.00
2023-04-08T06:54:13.446Z,100.00
2023-04-08T06:56:40.020Z,96.25
2023-04-08T07:00:03.441Z,99.22
2023-04-08T07:06:11.041Z,100.00
2023-04-08T07:08:37.630Z,93.90
2023-04-08T07:12:01.908Z,95.10
2023-04-08T07:15:18.898Z,98.48
2023-04-08T07:17:46.296Z,95.90
2023-04-08T07:21:09.618Z,91.85
2023-04-08T07:23:36.257Z,93.74
2023-04-08T07:26:59.109Z,95.99
2023-04-08T07:29:26.086Z,97.28
2023-04-08T07:31:52.660Z,94.98
2023-04-08T07:35:15.375Z,95.34
2023-04-08T07:37:42.022Z,96.42
2023-04-08T07:43:49.214Z,95.01
2023-04-08T07:46:16.200Z,93.11
2023-04-08T07:48:42.807Z,91.11
2023-04-08T07:52:06.083Z,91.33
2023-04-08T07:54:34.401Z,90.78
2023-04-08T07:57:02.177Z,88.60
2023-04-08T07:59:29.130Z,89.57
2023-04-08T08:01:55.832Z,90.54
2023-04-08T08:04:25.802Z,89.96
2023-04-08T08:06:52.545Z,90.04
2023-04-08T08:09:19.167Z,88.99
2023-04-08T08:19:57.204Z,86.14
2023-04-08T08:26:10.258Z,87.78
2023-04-08T08:29:33.246Z,87.61
2023-04-08T08:31:59.797Z,87.81
2023-04-08T08:38:07.612Z,88.17
2023-04-08T08:44:15.803Z,89.84
2023-04-08T08:46:48.410Z,88.34
2023-04-08T08:49:15.492Z,89.55
2023-04-08T08:51:43.951Z,86.86
2023-04-08T08:54:10.865Z,87.06
2023-04-08T08:57:17.639Z,87.85
2023-04-08T08:59:46.568Z,86.18
2023-04-08T09:02:32.110Z,86.93
2023-04-08T09:05:01.371Z,84.93
2023-04-08T09:07:29.963Z,83.50
2023-04-08T09:09:58.341Z,83.73
2023-04-08T09:12:27.252Z,83.91
2023-04-08T09:23:11.328Z,81.71
2023-04-08T09:25:38.420Z,84.13
2023-04-08T09:29:11.040Z,83.90
2023-04-08T09:35:34.926Z,84.91
2023-04-08T09:38:23.138Z,84.31
2023-04-08T09:44:07.099Z,82.83
2023-04-08T09:50:26.785Z,82.32
2023-04-08T09:55:43.830Z,82.20
2023-04-08T09:58:19.072Z,81.98
2023-04-08T10:00:50.999Z,82.74
2023-04-08T10:07:06.581Z,81.92
2023-04-08T10:10:29.052Z,81.90
2023-04-08T10:13:52.491Z,80.49
2023-04-08T10:16:24.403Z,79.87
2023-04-08T10:22:31.805Z,81.86
2023-04-08T10:25:16.753Z,81.61
2023-04-08T10:27:45.053Z,81.75
2023-04-08T10:31:11.796Z,80.43
2023-04-08T10:34:15.836Z,80.91
2023-04-08T10:37:38.793Z,82.01
2023-04-08T10:40:05.936Z,82.17
2023-04-08T10:43:29.168Z,82.54
2023-04-08T10:45:55.877Z,81.35
2023-04-08T10:48:29.183Z,81.75
2023-04-08T10:50:57.882Z,81.88
2023-04-08T10:53:29.768Z,81.60
2023-04-08T10:56:13.507Z,80.20
2023-04-08T10:59:36.660Z,80.93
2023-04-08T11:02:03.533Z,82.13
2023-04-08T11:05:26.432Z,82.10
2023-04-08T11:07:53.114Z,82.67
2023-04-08T11:10:19.636Z,79.70
2023-04-08T11:12:46.897Z,81.10
2023-04-08T11:19:05.523Z,81.92
2023-04-08T11:25:19.455Z,81.00
2023-04-08T11:27:47.640Z,80.25
2023-04-08T11:30:14.368Z,81.15
2023-04-08T11:32:41.343Z,82.52
2023-04-08T11:35:08.152Z,82.88
2023-04-08T11:41:16.407Z,80.32
2023-04-08T11:43:57.109Z,81.43
2023-04-08T11:46:24.617Z,82.90
2023-04-08T11:49:08.731Z,82.97
2023-04-08T11:52:14.515Z,82.55
2023-04-08T11:58:28.343Z,80.67
2023-04-08T12:00:55.165Z,79.03
2023-04-08T12:03:21.856Z,81.18
2023-04-08T12:05:49.374Z,81.66
2023-04-08T12:08:16.233Z,79.98
2023-04-08T12:10:42.804Z,78.08
2023-04-08T12:13:09.496Z,81.50
2023-04-08T12:16:00.822Z,83.00
2023-04-08T12:18:27.449Z,80.82
2023-04-08T12:20:54.859Z,79.75
2023-04-08T12:23:21.468Z,82.73
2023-04-08T12:25:48.081Z,83.00
2023-04-08T12:28:15.023Z,82.34
2023-04-08T12:30:41.643Z,81.95
2023-04-08T12:33:08.214Z,80.78
2023-04-08T12:35:34.840Z,81.61
2023-04-08T12:38:02.145Z,82.45
2023-04-08T12:40:28.746Z,80.18
2023-04-08T12:42:55.322Z,82.01
2023-04-08T12:46:18.049Z,81.27
2023-04-08T12:48:45.271Z,82.04
2023-04-08T12:52:08.312Z,81.24
2023-04-08T12:54:34.943Z,82.88
2023-04-08T12:57:57.621Z,80.94
2023-04-08T13:00:24.331Z,80.98
2023-04-08T13:03:47.315Z,82.36
2023-04-08T13:06:14.229Z,83.78
2023-04-08T13:09:39.267Z,83.95
2023-04-08T13:12:05.974Z,83.40
2023-04-08T13:15:03.535Z,83.25
2023-04-08T13:17:30.153Z,83.00
2023-04-08T13:20:52.902Z,82.94
2023-04-08T13:23:19.511Z,82.85
2023-04-08T13:26:42.709Z,82.22
2023-04-08T13:29:09.254Z,82.87
2023-04-08T13:32:32.146Z,83.49
2023-04-08T13:34:58.684Z,81.84
2023-04-08T13:38:21.337Z,82.71
2023-04-08T13:40:49.183Z,82.93
2023-04-08T13:46:56.571Z,84.31
2023-04-08T13:50:19.397Z,83.53
2023-04-08T13:52:46.029Z,83.65
2023-04-08T13:58:57.505Z,83.16
2023-04-08T14:01:25.882Z,82.66
2023-04-08T14:03:52.711Z,82.23
2023-04-08T14:06:19.302Z,82.97
2023-04-08T14:08:45.876Z,82.26
2023-04-08T14:11:12.808Z,82.99
2023-04-08T14:17:19.890Z,81.58
2023-04-08T14:23:42.782Z,81.81
2023-04-08T14:26:09.480Z,81.83
2023-04-08T14:28:36.553Z,83.49
2023-04-08T14:31:04.799Z,82.65
2023-04-08T14:33:31.665Z,82.61
2023-04-08T14:35:59.878Z,82.04
2023-04-08T14:38:26.987Z,81.64
2023-04-08T14:40:54.773Z,81.82
2023-04-08T14:43:21.384Z,81.68
2023-04-08T14:45:50.390Z,82.78
2023-04-08T14:48:17.288Z,82.06
2023-04-08T14:50:44.066Z,83.96
2023-04-08T14:53:11.151Z,83.84
2023-04-08T14:55:38.759Z,82.64
2023-04-08T14:58:05.777Z,83.22
2023-04-08T15:04:19.250Z,84.69
2023-04-08T15:10:32.936Z,85.04
2023-04-08T15:17:06.151Z,84.78
2023-04-08T15:23:26.168Z,84.78
2023-04-08T15:25:52.880Z,84.36
2023-04-08T15:28:19.513Z,85.43
2023-04-08T15:30:46.216Z,84.99
2023-04-08T15:33:13.033Z,85.22
2023-04-08T15:35:39.769Z,85.01
2023-04-08T15:38:07.765Z,87.46
2023-04-08T15:44:22.461Z,87.25
2023-04-08T15:46:49.128Z,86.86
2023-04-08T15:49:15.800Z,86.60
2023-04-08T15:51:44.602Z,85.97
2023-04-08T15:54:11.702Z,87.62
2023-04-08T15:56:38.374Z,87.94
2023-04-08T15:59:04.994Z,86.68
2023-04-08T16:01:33.169Z,86.91
2023-04-08T16:04:00.105Z,88.34
2023-04-08T16:10:14.246Z,86.85
2023-04-08T16:12:41.094Z,87.03
2023-04-08T16:15:08.457Z,87.15
2023-04-08T16:17:35.720Z,86.68
2023-04-08T16:20:53.207Z,88.54
2023-04-08T16:23:20.265Z,86.45
2023-04-08T16:25:47.025Z,88.54
2023-04-08T16:28:13.628Z,89.90
2023-04-08T16:30:43.538Z,89.29
2023-04-08T16:33:11.461Z,88.21
2023-04-08T16:35:38.693Z,88.59
2023-04-08T16:39:02.015Z,88.86
2023-04-08T16:41:28.563Z,88.61
2023-04-08T16:44:51.827Z,88.45
2023-04-08T16:47:18.342Z,88.29
2023-04-08T16:50:41.116Z,87.62
2023-04-08T16:53:07.648Z,89.65
2023-04-08T16:56:30.500Z,89.51
2023-04-08T16:58:57.099Z,87.46
2023-04-08T17:02:20.610Z,87.93
2023-04-08T17:04:50.349Z,88.38
2023-04-08T17:08:12.981Z,89.62
2023-04-08T17:10:39.558Z,89.24
2023-04-08T17:14:02.683Z,88.35
2023-04-08T17:16:29.298Z,91.21
2023-04-08T17:23:02.203Z,91.83
2023-04-08T17:25:28.749Z,89.54
2023-04-08T17:27:55.356Z,89.82
2023-04-08T17:30:21.947Z,88.00
2023-04-08T17:32:48.708Z,89.44
2023-04-08T17:38:56.119Z,91.40
2023-04-08T17:44:13.110Z,91.64
2023-04-08T17:50:27.192Z,93.79
2023-04-08T17:52:53.846Z,88.02
2023-04-08T17:55:20.430Z,93.66
2023-04-08T17:57:47.628Z,91.08
2023-04-08T18:00:14.344Z,95.26
2023-04-08T18:02:41.869Z,92.79
2023-04-08T18:05:09.250Z,91.08
2023-04-08T18:07:54.592Z,93.23
2023-04-08T18:10:23.108Z,94.25
2023-04-08T18:12:52.486Z,90.62
2023-04-08T18:15:21.785Z,96.14
2023-04-08T18:17:48.402Z,94.36
2023-04-08T18:20:15.002Z,89.93
2023-04-08T18:22:42.423Z,94.02
2023-04-08T18:25:09.506Z,91.56
2023-04-08T18:27:36.386Z,93.17
2023-04-08T18:32:53.898Z,93.46
2023-04-08T18:35:22.376Z,95.64
2023-04-08T18:37:49.013Z,94.82
2023-04-08T18:40:16.526Z,92.60
2023-04-08T18:42:43.061Z,93.85
2023-04-08T18:45:10.030Z,91.87
2023-04-08T18:47:37.900Z,97.06
2023-04-08T18:50:05.133Z,95.17
2023-04-08T18:52:32.298Z,94.20
2023-04-08T18:55:00.966Z,93.21
2023-04-08T18:57:27.690Z,90.47
2023-04-08T18:59:54.235Z,95.92
2023-04-08T19:02:23.106Z,94.05
2023-04-08T19:04:49.718Z,92.95
2023-04-08T19:07:17.274Z,91.28
2023-04-08T19:09:43.922Z,92.76
2023-04-08T19:12:10.624Z,95.52
2023-04-08T19:14:37.537Z,93.04
2023-04-08T19:17:04.121Z,92.71
2023-04-08T19:19:30.847Z,91.56
2023-04-08T19:21:57.396Z,88.35
2023-04-08T19:24:24.238Z,89.21
2023-04-08T19:26:53.055Z,93.92
2023-04-08T19:29:22.917Z,92.10
2023-04-08T19:31:49.581Z,92.22
2023-04-08T19:34:19.058Z,99.91
2023-04-08T19:36:46.388Z,94.77
2023-04-08T19:39:13.040Z,95.03
2023-04-08T19:41:41.219Z,100.00
2023-04-08T19:44:07.751Z,96.33
2023-04-08T19:47:30.462Z,96.12
2023-04-08T19:49:58.228Z,93.45
2023-04-08T19:53:21.293Z,93.33
2023-04-08T19:55:47.832Z,100.00
2023-04-08T19:59:11.082Z,95.08
2023-04-08T20:01:39.426Z,94.10
2023-04-08T20:04:26.299Z,96.41
2023-04-08T20:06:52.967Z,94.06
2023-04-08T20:09:19.590Z,93.74
2023-04-08T20:11:46.151Z,97.55
2023-04-08T20:14:12.747Z,99.91
2023-04-08T20:17:00.845Z,97.47
2023-04-08T20:19:27.573Z,96.53
2023-04-08T20:22:13.010Z,97.48
2023-04-08T20:24:44.308Z,96.63
2023-04-08T20:27:10.890Z,96.00
2023-04-08T20:29:37.517Z,99.35
2023-04-08T20:32:04.364Z,99.41
2023-04-08T20:34:31.036Z,98.24
2023-04-08T20:36:58.005Z,96.37
2023-04-08T20:39:43.297Z,96.30
2023-04-08T20:42:10.283Z,97.63
2023-04-08T20:44:42.139Z,98.25
2023-04-08T20:47:09.176Z,98.32
2023-04-08T20:49:54.476Z,99.57
2023-04-08T20:52:21.140Z,96.47
2023-04-08T20:54:48.197Z,96.94
2023-04-08T20:57:15.558Z,98.03
2023-04-08T20:59:42.279Z,99.18
2023-04-08T21:02:10.204Z,98.67
2023-04-08T21:04:37.538Z,96.98
2023-04-08T21:07:04.087Z,98.41
2023-04-08T21:09:33.138Z,97.22
2023-04-08T21:11:59.761Z,98.28
2023-04-08T21:14:26.328Z,96.74
2023-04-08T21:16:55.368Z,94.21
2023-04-08T21:19:22.069Z,95.76
2023-04-08T21:21:48.808Z,97.33
2023-04-08T21:24:15.533Z,98.71
2023-04-08T21:26:42.073Z,97.83
2023-04-08T21:29:08.727Z,96.92
2023-04-08T21:31:35.583Z,98.53
2023-04-08T21:34:02.089Z,96.30
2023-04-08T21:36:28.670Z,96.89
2023-04-08T21:38:56.232Z,100.00
2023-04-08T21:41:24.256Z,100.00
2023-04-08T21:43:53.675Z,98.41
2023-04-08T21:46:20.642Z,98.82
2023-04-08T21:48:47.528Z,99.72
2023-04-08T21:54:08.225Z,100.00
2023-04-08T21:56:35.436Z,96.98
2023-04-08T21:59:02.123Z,96.24
2023-04-08T22:02:24.991Z,95.35
2023-04-08T22:05:10.755Z,99.75
2023-04-08T22:08:33.937Z,99.17
2023-04-08T22:11:00.985Z,97.18
2023-04-08T22:14:23.872Z,98.95
2023-04-08T22:16:50.530Z,100.00
2023-04-08T22:22:57.761Z,97.97
2023-04-08T22:25:26.361Z,95.97
2023-04-08T22:27:52.950Z,96.61
2023-04-08T22:30:21.649Z,100.00
2023-04-08T22:33:44.737Z,99.90
2023-04-08T22:36:11.363Z,96.62
2023-04-08T22:39:34.256Z,99.60
2023-04-08T22:42:01.116Z,98.63
2023-04-08T22:45:23.944Z,98.09
2023-04-08T22:47:50.565Z,98.37
2023-04-08T22:50:17.319Z,95.11
2023-04-08T22:56:26.398Z,97.45
2023-04-08T23:02:34.210Z,98.51
2023-04-08T23:08:41.462Z,99.97
2023-04-08T23:14:48.941Z,94.97
2023-04-08T23:20:57.823Z,95.78
2023-04-08T23:24:20.978Z,97.19
2023-04-08T23:30:55.592Z,97.12
2023-04-08T23:37:04.468Z,96.23
2023-04-08T23:40:11.136Z,98.03
2023-04-08T23:42:37.865Z,100.00
2023-04-08T23:45:05.863Z,100.00
2023-04-08T23:48:29.021Z,98.94
2023-04-08T23:50:56.042Z,100.00
2023-04-08T23:53:22.678Z,99.20
2023-04-08T23:59:36.264Z,100.00
